Time;durP1;ratioP1;P1;durP2;ratioP2;P2;SDS_P1;SDS_P2;PMS_P1;PMS_P2;Temp;Humidity;BMP_temperature;BMP_pressure;BME280_temperature;BME280_humidity;BME280_pressure;Samples;Min_cycle;Max_cycle;Signal;HPM_P1;HPM_P2
2022/05/17 00:00:59;;;;;;;1.38;1.17;;;23.00;40.10;;;26.84;26.10;101549.38;5094232;28;20044;-13
2022/05/17 00:03:25;;;;;;;1.48;1.27;;;23.00;40.10;;;26.81;26.35;101542.41;5094002;28;20052;-13
2022/05/17 00:05:51;;;;;;;1.45;1.17;;;23.00;40.10;;;26.82;26.18;101549.50;5076118;28;20056;-12
2022/05/17 00:08:17;;;;;;;1.30;1.20;;;23.00;40.10;;;26.81;26.12;101539.72;5094004;28;20048;-12
2022/05/17 00:10:44;;;;;;;1.40;1.27;;;23.00;40.10;;;26.80;26.21;101538.88;5093884;28;20103;-12
2022/05/17 00:13:13;;;;;;;1.38;1.17;;;23.00;40.10;;;26.80;26.35;101552.28;5093934;28;20039;-12
2022/05/17 00:15:43;;;;;;;1.27;1.08;;;23.00;40.10;;;26.82;26.29;101543.28;5093834;28;20058;-13
2022/05/17 00:18:12;;;;;;;1.42;1.33;;;23.00;40.10;;;26.80;26.31;101538.03;5094207;28;20055;-13
2022/05/17 00:20:41;;;;;;;1.10;1.00;;;22.90;40.10;;;26.78;26.31;101538.16;5093255;28;20048;-13
2022/05/17 00:23:07;;;;;;;1.30;1.20;;;23.00;40.10;;;26.77;26.30;101541.78;5093286;28;20040;-12
2022/05/17 00:25:34;;;;;;;1.35;1.20;;;23.00;40.10;;;26.84;26.44;101554.75;5093970;28;20104;-12
2022/05/17 00:28:00;;;;;;;1.20;1.10;;;23.00;40.10;;;26.79;26.39;101544.34;5073970;28;20131;-12
2022/05/17 00:30:26;;;;;;;1.42;1.00;;;22.90;40.10;;;26.83;26.20;101534.25;5093670;28;20044;-13
2022/05/17 00:32:52;;;;;;;2.22;1.30;;;23.00;40.20;;;26.82;26.25;101535.22;5093646;28;20051;-13
2022/05/17 00:35:19;;;;;;;1.35;1.10;;;22.90;40.10;;;26.77;26.21;101525.69;5093910;28;20041;-12
2022/05/17 00:37:46;;;;;;;1.30;1.20;;;23.00;40.10;;;26.78;26.36;101530.09;5093387;28;20056;-12
2022/05/17 00:40:14;;;;;;;1.70;1.15;;;23.00;40.20;;;26.80;26.23;101530.81;5093493;28;20059;-12
2022/05/17 00:42:41;;;;;;;1.30;1.10;;;23.00;40.10;;;26.81;26.23;101537.03;5093431;28;20129;-13
2022/05/17 00:45:09;;;;;;;1.02;1.00;;;22.90;40.10;;;26.80;26.39;101522.78;5093687;28;20051;-12
2022/05/17 00:47:42;;;;;;;2.97;1.45;;;22.90;40.10;;;26.77;26.22;101522.16;5093382;28;20040;-12
2022/05/17 00:50:34;;;;;;;2.10;1.30;;;22.90;40.10;;;26.77;26.32;101511.44;5093300;28;20048;-13
2022/05/17 00:53:05;;;;;;;1.27;1.10;;;22.90;40.10;;;26.76;26.24;101501.66;5075294;28;20052;-13
2022/05/17 00:55:40;;;;;;;1.10;1.00;;;22.90;40.10;;;26.75;26.11;101516.91;5073821;28;20059;-12
2022/05/17 00:58:19;;;;;;;1.20;1.10;;;22.90;40.10;;;26.78;26.20;101550.69;5093214;28;20040;-12
2022/05/17 01:01:02;;;;;;;1.23;1.10;;;22.90;40.20;;;26.77;26.27;101559.72;5093190;28;20052;-12
2022/05/17 01:03:43;;;;;;;1.58;1.30;;;22.90;40.20;;;26.75;26.17;101564.34;5093491;28;20052;-12
2022/05/17 01:06:09;;;;;;;1.13;1.02;;;22.90;40.20;;;26.79;26.25;101568.50;5074806;28;20051;-13
2022/05/17 01:08:35;;;;;;;1.75;1.10;;;22.90;40.20;;;26.77;26.19;101563.25;5092947;28;20048;-13
2022/05/17 01:11:01;;;;;;;1.50;1.38;;;22.90;40.20;;;26.73;26.43;101555.53;5093394;28;20070;-13
2022/05/17 01:16:11;;;;;;;1.33;1.02;;;22.90;40.20;;;26.72;26.40;101552.00;5093136;28;20464;-12
2022/05/17 01:18:41;;;;;;;1.17;1.08;;;22.90;40.20;;;26.68;26.27;101550.56;5092833;28;20101;-12
2022/05/17 01:21:11;;;;;;;1.10;1.00;;;22.90;40.20;;;26.69;26.32;101536.16;5074670;28;20082;-13
2022/05/17 01:23:38;;;;;;;1.70;1.10;;;22.90;40.20;;;26.71;26.49;101541.41;5093243;28;20048;-12
2022/05/17 01:26:07;;;;;;;1.45;1.27;;;22.90;40.20;;;26.74;26.16;101552.75;5093171;28;20050;-12
2022/05/17 01:28:36;;;;;;;1.33;1.23;;;22.90;40.20;;;26.73;26.16;101552.84;5074447;28;20052;-13
2022/05/17 01:31:07;;;;;;;1.20;1.10;;;22.90;40.20;;;26.72;26.08;101554.69;5093192;28;20059;-13
2022/05/17 01:33:36;;;;;;;1.67;1.23;;;22.90;40.20;;;26.71;26.43;101552.13;5092525;28;20131;-12
2022/05/17 01:36:07;;;;;;;1.45;1.10;;;22.90;40.20;;;26.68;26.34;101537.13;5092801;28;20086;-13
2022/05/17 01:38:33;;;;;;;1.00;1.00;;;22.80;40.20;;;26.74;26.22;101538.50;5092349;28;20083;-12
2022/05/17 01:40:59;;;;;;;1.48;1.30;;;22.80;40.20;;;26.70;26.33;101528.97;5093122;28;20071;-12
2022/05/17 01:43:25;;;;;;;1.10;1.00;;;22.80;40.20;;;26.69;26.31;101530.78;5091416;28;20056;-12
2022/05/17 01:45:51;;;;;;;1.50;1.20;;;22.90;40.20;;;26.71;26.25;101533.34;5092468;28;20122;-12
2022/05/17 01:48:17;;;;;;;1.77;1.23;;;22.90;40.30;;;26.72;26.43;101543.97;5092423;28;20060;-12
2022/05/17 01:50:43;;;;;;;1.40;1.10;;;22.80;40.20;;;26.72;26.40;101540.44;5092782;28;20052;-12
2022/05/17 01:53:09;;;;;;;1.63;1.15;;;22.80;40.20;;;26.73;26.21;101547.50;5074276;28;20055;-13
2022/05/17 01:55:35;;;;;;;1.90;1.27;;;22.80;40.20;;;26.71;26.61;101546.75;5092427;28;20415;-13
2022/05/17 01:58:01;;;;;;;1.92;1.48;;;22.80;40.80;;;26.71;26.24;101538.72;5092010;28;20150;-12
2022/05/17 02:00:27;;;;;;;1.08;0.98;;;22.80;40.20;;;26.67;26.44;101532.72;5092776;28;20535;-13
2022/05/17 02:02:53;;;;;;;1.77;1.25;;;22.80;40.20;;;26.72;26.21;101543.13;5092400;28;20052;-13
2022/05/17 02:05:22;;;;;;;1.08;1.00;;;22.80;40.20;;;26.70;26.15;101537.03;5092519;28;20050;-13
2022/05/17 02:07:51;;;;;;;1.27;1.17;;;22.80;40.20;;;26.66;26.36;101528.31;5092662;28;20059;-12
2022/05/17 02:10:25;;;;;;;1.73;1.05;;;22.80;40.20;;;26.70;26.13;101537.03;5092309;28;20049;-13
2022/05/17 02:12:57;;;;;;;1.20;1.10;;;22.80;40.20;;;26.70;26.14;101539.72;5092133;28;20403;-13
2022/05/17 02:15:23;;;;;;;1.63;1.13;;;22.80;40.20;;;26.71;26.42;101541.41;5092802;28;20044;-13
2022/05/17 02:17:49;;;;;;;1.30;1.20;;;22.80;40.20;;;26.71;26.36;101542.25;5092013;28;20044;-12
2022/05/17 02:20:16;;;;;;;1.42;1.23;;;22.80;40.20;;;26.64;26.25;101532.97;5092140;28;20040;-12
2022/05/17 02:22:43;;;;;;;1.60;1.15;;;22.80;40.20;;;26.70;26.29;101545.06;5092696;28;20043;-12
2022/05/17 02:25:11;;;;;;;1.33;1.10;;;22.80;40.20;;;26.66;26.40;101547.09;5092029;28;20139;-12
2022/05/17 02:27:38;;;;;;;1.17;1.00;;;22.80;40.20;;;26.64;26.28;101545.53;5091986;28;20143;-12
2022/05/17 02:30:12;;;;;;;1.17;1.08;;;22.80;40.20;;;26.63;26.27;101544.69;5073802;28;20048;-13
2022/05/17 02:32:38;;;;;;;1.27;1.13;;;22.80;40.20;;;26.67;26.47;101556.88;5092621;28;20090;-13
2022/05/17 02:35:05;;;;;;;0.90;0.90;;;22.80;40.20;;;26.64;26.21;101551.72;5073904;28;20055;-12
2022/05/17 02:37:31;;;;;;;1.50;1.20;;;22.80;40.20;;;26.66;26.34;101549.78;5091435;28;20499;-13
2022/05/17 02:39:57;;;;;;;1.40;1.30;;;22.80;40.20;;;26.70;26.21;101555.81;5092230;28;20055;-13
2022/05/17 02:42:23;;;;;;;1.27;1.10;;;22.80;40.20;;;26.66;26.30;101541.75;5091732;28;20488;-12
2022/05/17 02:44:48;;;;;;;1.38;1.20;;;22.80;40.20;;;26.67;26.34;101540.78;5093091;28;20044;-12
2022/05/17 02:47:14;;;;;;;1.17;1.08;;;22.80;40.20;;;26.62;26.32;101535.72;5094597;28;20055;-12
2022/05/17 02:49:44;;;;;;;1.30;1.05;;;22.80;40.20;;;26.68;26.27;101541.63;5095122;28;20101;-12
2022/05/17 02:52:11;;;;;;;2.10;1.30;;;22.80;40.20;;;26.67;26.05;101546.16;5095158;28;20040;-12
2022/05/17 02:54:37;;;;;;;2.05;1.10;;;22.80;40.20;;;26.64;26.40;101545.53;5095376;28;20079;-13
2022/05/17 02:57:04;;;;;;;1.02;0.93;;;22.80;40.20;;;26.68;26.46;101553.22;5094875;28;20090;-12
2022/05/17 02:59:31;;;;;;;1.38;1.10;;;22.80;40.20;;;26.61;26.46;101539.41;5094846;28;20054;-13
2022/05/17 03:01:56;;;;;;;1.52;1.30;;;22.80;40.20;;;26.66;26.39;101557.84;5095112;28;20044;-12
2022/05/17 03:04:22;;;;;;;0.88;0.80;;;22.80;40.30;;;26.65;26.35;101556.13;5095009;28;20074;-12
2022/05/17 03:06:49;;;;;;;1.50;1.20;;;22.80;40.20;;;26.64;26.35;101556.25;5095086;28;20488;-13
2022/05/17 03:09:15;;;;;;;2.03;1.48;;;22.80;40.80;;;26.68;26.50;101561.28;5094968;28;20127;-13
2022/05/17 03:11:43;;;;;;;1.05;0.95;;;22.80;40.20;;;26.64;26.17;101556.25;5094822;28;20084;-13
2022/05/17 03:14:14;;;;;;;1.15;1.00;;;22.80;40.30;;;26.63;26.27;101552.72;5094841;28;20114;-13
2022/05/17 03:16:41;;;;;;;1.52;1.00;;;22.80;40.20;;;26.68;26.34;101563.09;5094636;28;20098;-13
2022/05/17 03:19:07;;;;;;;1.10;0.90;;;22.80;40.20;;;26.62;26.21;101557.19;5094484;28;20044;-12
2022/05/17 03:21:33;;;;;;;1.10;1.00;;;22.80;40.20;;;26.63;26.52;101563.47;5094849;28;20052;-12
2022/05/17 03:23:59;;;;;;;1.30;1.20;;;22.70;40.20;;;26.65;26.38;101569.56;5094752;28;20515;-12
2022/05/17 03:26:26;;;;;;;1.67;1.33;;;22.80;40.30;;;26.62;26.50;101562.53;5094607;28;20056;-13
2022/05/17 03:28:51;;;;;;;1.17;1.00;;;22.80;40.20;;;26.62;26.25;101561.69;5094527;28;20407;-13
2022/05/17 03:31:17;;;;;;;1.65;1.25;;;22.80;40.20;;;26.64;26.36;101561.63;5094566;28;20044;-12
2022/05/17 03:33:44;;;;;;;1.35;1.10;;;22.80;40.30;;;26.61;26.48;101560.84;5094752;28;20101;-13
2022/05/17 03:36:10;;;;;;;1.30;1.20;;;22.70;40.20;;;26.66;26.28;101565.03;5094516;28;20484;-12
2022/05/17 03:38:37;;;;;;;0.93;0.93;;;22.80;40.30;;;26.59;26.30;101557.41;5094483;28;20036;-13
2022/05/17 03:41:03;;;;;;;1.08;0.98;;;22.70;40.20;;;26.62;26.54;101567.91;5094432;28;20491;-13
2022/05/17 03:43:29;;;;;;;0.98;0.93;;;22.80;40.30;;;26.59;26.32;101567.28;5094749;28;20198;-12
2022/05/17 03:45:57;;;;;;;1.23;1.00;;;22.80;40.50;;;26.60;26.42;101575.22;5094561;28;20051;-13
2022/05/17 03:48:25;;;;;;;0.95;0.90;;;22.80;40.30;;;26.59;26.19;101568.13;5094306;28;20058;-12
2022/05/17 03:50:51;;;;;;;1.35;1.25;;;22.70;40.20;;;26.64;26.46;101588.44;5094376;28;20044;-13
2022/05/17 03:53:17;;;;;;;0.80;0.80;;;22.80;40.30;;;26.60;26.34;101582.44;5094571;28;20055;-12
2022/05/17 03:55:43;;;;;;;1.13;1.00;;;22.70;40.20;;;26.59;26.50;101580.69;5094208;28;20063;-13
2022/05/17 03:58:11;;;;;;;1.90;1.00;;;22.80;40.30;;;26.62;26.36;101591.22;5093888;28;20048;-12
2022/05/17 04:00:37;;;;;;;1.42;1.00;;;22.80;40.30;;;26.61;26.40;101590.34;5094141;28;20056;-13
2022/05/17 04:03:03;;;;;;;1.15;1.08;;;22.80;40.30;;;26.66;26.36;101591.84;5094162;28;20114;-12
2022/05/17 04:05:29;;;;;;;1.10;1.00;;;22.80;40.30;;;26.62;26.45;101583.16;5093959;28;20056;-12
2022/05/17 04:07:55;;;;;;;1.02;1.00;;;22.80;40.30;;;26.65;26.21;101588.34;5093877;28;20059;-12
2022/05/17 04:10:22;;;;;;;1.05;0.90;;;22.80;40.30;;;26.60;26.48;101585.09;5094419;28;20044;-13
2022/05/17 04:12:48;;;;;;;1.73;1.30;;;22.80;40.30;;;26.63;26.24;101590.28;5093907;28;20047;-13
2022/05/17 04:15:21;;;;;;;1.40;1.10;;;22.70;40.20;;;26.61;26.47;101589.47;5093943;28;20150;-12
2022/05/17 04:17:48;;;;;;;1.15;1.02;;;22.70;40.20;;;26.59;26.27;101591.44;5075709;28;20548;-12
2022/05/17 04:20:16;;;;;;;1.20;0.98;;;22.70;40.20;;;26.61;26.58;101590.34;5093871;28;20522;-12
2022/05/17 04:22:44;;;;;;;1.15;1.05;;;22.70;40.20;;;26.58;26.36;101582.53;5093707;28;20044;-12
2022/05/17 04:25:12;;;;;;;1.13;1.05;;;22.80;40.30;;;26.56;26.40;101576.44;5093826;28;20069;-12
2022/05/17 04:27:38;;;;;;;1.00;0.90;;;22.70;40.30;;;26.63;26.55;101584.91;5093635;28;20055;-12
2022/05/17 04:30:05;;;;;;;0.80;0.80;;;22.70;40.20;;;26.61;26.23;101585.00;5093461;28;20106;-13
2022/05/17 04:32:31;;;;;;;1.65;1.10;;;22.70;40.20;;;26.56;26.37;101571.06;5093335;28;20122;-13
2022/05/17 04:34:58;;;;;;;1.17;1.08;;;22.70;40.20;;;26.62;26.39;101570.59;5094091;28;20056;-12
2022/05/17 04:37:23;;;;;;;1.00;0.93;;;22.70;40.20;;;26.58;26.36;101587.91;5093384;28;20101;-12
2022/05/17 04:39:49;;;;;;;1.20;1.10;;;22.70;40.20;;;26.61;26.51;101584.13;5093403;28;20056;-12
2022/05/17 04:42:15;;;;;;;1.20;1.10;;;22.70;40.20;;;26.59;26.42;101580.69;5093408;28;20048;-12
2022/05/17 04:44:41;;;;;;;1.23;1.10;;;22.70;40.20;;;26.62;26.36;101588.53;5094021;28;20040;-13
2022/05/17 04:47:09;;;;;;;0.82;0.82;;;22.70;40.20;;;26.63;26.31;101598.31;5093532;28;20051;-13
2022/05/17 04:49:35;;;;;;;1.17;1.08;;;22.70;40.30;;;26.60;26.32;101593.16;5093370;28;20075;-13
2022/05/17 04:52:01;;;;;;;0.98;0.90;;;22.70;40.20;;;26.58;26.43;101595.94;5093392;28;20134;-13
2022/05/17 04:54:28;;;;;;;1.40;1.17;;;22.70;40.20;;;26.61;26.43;101597.53;5093238;28;20047;-12
2022/05/17 04:56:54;;;;;;;1.35;1.25;;;22.70;40.20;;;26.62;26.38;101599.25;5093261;28;20067;-13
2022/05/17 04:59:20;;;;;;;1.30;1.10;;;22.70;40.20;;;26.62;26.32;101599.25;5093409;28;20044;-12
2022/05/17 05:01:47;;;;;;;1.33;1.00;;;22.70;40.20;;;26.63;26.45;101592.97;5093092;28;20086;-13
2022/05/17 05:04:13;;;;;;;1.15;1.02;;;22.70;40.20;;;26.62;26.20;101604.63;5093148;28;20044;-12
2022/05/17 05:06:38;;;;;;;1.10;1.02;;;22.70;40.20;;;26.62;26.30;101601.94;5093050;28;20097;-12
2022/05/17 05:09:07;;;;;;;1.15;0.95;;;22.80;40.20;;;26.57;26.32;101596.06;5092818;28;20056;-12
2022/05/17 05:11:33;;;;;;;1.17;1.10;;;22.70;40.20;;;26.60;26.26;101601.19;5093021;28;20140;-13
2022/05/17 05:13:58;;;;;;;1.52;1.40;;;22.70;40.20;;;26.61;26.36;101610.94;5093251;28;20127;-12
2022/05/17 05:16:24;;;;;;;1.23;1.00;;;22.70;40.20;;;26.60;26.51;101614.59;5093022;28;20400;-13
2022/05/17 05:18:51;;;;;;;0.93;0.80;;;22.70;40.20;;;26.61;26.22;101618.97;5093384;28;20468;-12
2022/05/17 05:21:17;;;;;;;1.55;1.20;;;22.70;40.20;;;26.57;26.22;101615.69;5092967;28;20404;-12
2022/05/17 05:23:44;;;;;;;1.25;1.15;;;22.70;40.20;;;26.64;26.35;101628.69;5092548;28;20048;-13
2022/05/17 05:26:12;;;;;;;5.07;1.23;;;22.70;40.20;;;26.60;26.63;101619.97;5092710;28;20403;-14
2022/05/17 05:28:39;;;;;;;1.88;1.20;;;22.70;41.30;;;26.62;26.61;101628.75;5092650;28;20147;-14
2022/05/17 05:31:05;;;;;;;6.70;1.48;;;22.70;40.70;;;26.62;26.84;101626.06;5092818;28;20059;-13
2022/05/17 05:33:34;;;;;;;3.28;1.23;;;22.80;41.50;;;26.64;27.44;101620.63;5092704;28;20044;-14
2022/05/17 05:36:01;;;;;;;8.00;1.65;;;22.80;41.80;;;26.64;27.35;101621.47;5092974;28;20051;-13
2022/05/17 05:38:27;;;;;;;4.63;1.30;;;22.80;42.20;;;26.65;28.00;101617.84;5092410;28;20068;-14
2022/05/17 05:40:53;;;;;;;4.10;1.50;;;22.80;43.30;;;26.65;27.88;101619.63;5092588;28;20044;-13
2022/05/17 05:43:19;;;;;;;5.63;1.48;;;22.80;43.30;;;26.67;28.24;101626.63;5092596;28;20213;-13
2022/05/17 05:45:45;;;;;;;4.72;1.20;;;22.80;43.50;;;26.67;28.42;101626.63;5073793;28;20071;-14
2022/05/17 05:48:11;;;;;;;5.43;1.30;;;22.80;43.70;;;26.71;28.63;101629.94;5092542;28;20372;-14
2022/05/17 05:50:37;;;;;;;5.25;1.38;;;22.80;44.00;;;26.66;28.56;101624.91;5092697;28;20083;-13
2022/05/17 05:53:15;;;;;;;4.18;1.42;;;22.80;44.00;;;26.69;28.73;101623.81;5092416;28;20036;-13
2022/05/17 05:55:41;;;;;;;4.35;1.50;;;22.80;44.30;;;26.69;28.74;101630.03;5092632;28;20048;-13
2022/05/17 05:58:08;;;;;;;2.78;1.35;;;22.80;44.20;;;26.67;28.70;101626.63;5092257;28;20060;-14
2022/05/17 06:00:35;;;;;;;2.97;1.48;;;22.80;44.10;;;26.67;28.73;101634.66;5092416;28;20044;-13
2022/05/17 06:03:02;;;;;;;2.63;1.58;;;22.80;44.10;;;26.70;28.75;101637.13;5092511;28;20618;-14
2022/05/17 06:05:31;;;;;;;3.75;1.40;;;22.80;44.00;;;26.66;28.70;101632.09;5092012;28;20469;-13
2022/05/17 06:07:57;;;;;;;3.13;1.52;;;22.80;43.90;;;26.67;28.61;101640.03;5092083;28;20126;-14
2022/05/17 06:10:23;;;;;;;4.18;1.50;;;22.80;43.90;;;26.65;28.69;101636.63;5092053;28;20398;-13
2022/05/17 06:12:50;;;;;;;5.50;1.50;;;22.80;44.40;;;26.66;28.90;101643.66;5091901;28;20056;-13
2022/05/17 06:15:16;;;;;;;2.50;1.60;;;22.80;43.80;;;26.67;28.67;101649.91;5092024;28;20036;-13
2022/05/17 06:17:42;;;;;;;2.95;1.15;;;22.70;43.70;;;26.66;28.43;101657.09;5091731;28;20135;-13
2022/05/17 06:20:11;;;;;;;2.25;1.30;;;22.70;43.70;;;26.66;28.62;101656.25;5093120;28;20538;-13
2022/05/17 06:22:38;;;;;;;1.83;1.40;;;22.80;43.60;;;26.65;28.44;101655.41;5095660;28;20090;-13
2022/05/17 06:25:06;;;;;;;5.55;1.50;;;22.70;43.50;;;26.62;28.42;101656.44;5095198;28;20054;-13
2022/05/17 06:27:32;;;;;;;2.78;1.10;;;22.70;43.50;;;26.66;28.53;101658.91;5094938;28;20052;-14
2022/05/17 06:29:58;;;;;;;4.28;1.52;;;22.70;43.40;;;26.60;28.53;101657.53;5094816;28;20082;-13
2022/05/17 06:32:23;;;;;;;2.60;1.30;;;22.70;43.40;;;26.60;28.38;101652.16;5094885;28;20052;-13
2022/05/17 06:34:49;;;;;;;4.07;1.45;;;22.70;43.30;;;26.60;28.77;101668.25;5095103;28;20050;-14
2022/05/17 06:37:15;;;;;;;2.85;1.45;;;22.70;43.30;;;26.60;28.48;101657.53;5094952;28;20055;-13
2022/05/17 06:39:42;;;;;;;2.80;1.27;;;22.70;43.20;;;26.60;28.54;101668.25;5095184;28;20056;-13
2022/05/17 06:42:08;;;;;;;2.40;1.33;;;22.70;43.20;;;26.61;28.42;101668.16;5077300;28;20044;-13
2022/05/17 06:44:38;;;;;;;2.58;1.00;;;22.70;43.10;;;26.59;28.17;101666.53;5095544;28;20456;-14
2022/05/17 06:47:06;;;;;;;1.48;1.13;;;22.70;43.10;;;26.62;28.38;101677.03;5095078;28;20040;-14
2022/05/17 06:49:32;;;;;;;1.23;1.10;;;22.70;43.00;;;26.62;28.17;101677.88;5075080;28;20060;-13
2022/05/17 06:52:02;;;;;;;1.73;1.20;;;22.70;43.00;;;26.60;28.16;101678.97;5095537;28;20052;-13
2022/05/17 06:54:28;;;;;;;2.90;1.75;;;22.70;42.90;;;26.64;28.09;101679.66;5095108;28;20052;-13
2022/05/17 06:56:54;;;;;;;1.55;1.30;;;22.70;42.90;;;26.59;28.16;101683.47;5095340;28;20047;-13
2022/05/17 06:59:19;;;;;;;4.57;1.42;;;22.70;42.80;;;26.60;28.13;101684.34;5095006;28;20048;-14
2022/05/17 07:01:49;;;;;;;2.28;1.40;;;22.70;42.80;;;26.59;28.13;101679.94;5094683;28;20052;-13
2022/05/17 07:04:15;;;;;;;1.10;1.00;;;22.70;42.80;;;26.60;28.28;101687.88;5094827;28;20068;-14
2022/05/17 07:06:41;;;;;;;2.45;1.45;;;22.70;42.70;;;26.57;28.06;101671.16;5094680;28;20485;-13
2022/05/17 07:09:07;;;;;;;1.85;1.40;;;22.70;42.70;;;26.61;28.16;101675.31;5094853;28;20052;-13
2022/05/17 07:14:18;;;;;;;1.98;1.30;;;22.70;42.60;;;26.62;27.96;101695.81;5094727;28;20051;-13
2022/05/17 07:16:43;;;;;;;1.77;1.35;;;22.70;42.60;;;26.61;28.03;101691.41;5076086;28;20059;-13
2022/05/17 07:19:11;;;;;;;2.08;1.15;;;22.70;42.60;;;26.59;27.96;101685.31;5094397;28;20131;-13
2022/05/17 07:21:36;;;;;;;1.45;1.30;;;22.70;42.60;;;26.61;27.95;101692.28;5094482;28;20048;-13
2022/05/17 07:24:02;;;;;;;1.20;1.10;;;22.70;42.50;;;26.60;27.92;101689.72;5094720;28;20055;-13
2022/05/17 07:26:28;;;;;;;1.30;0.85;;;22.70;42.50;;;26.63;28.12;101684.16;5094743;28;20117;-13
2022/05/17 07:28:54;;;;;;;4.55;1.52;;;22.70;42.40;;;26.63;28.00;101692.22;5094740;28;20040;-13
2022/05/17 07:31:19;;;;;;;2.03;1.42;;;22.80;42.40;;;26.64;28.00;101691.22;5073639;28;20052;-14
2022/05/17 07:33:45;;;;;;;1.63;1.20;;;22.80;42.40;;;26.64;27.83;101691.22;5094617;28;20402;-13
2022/05/17 07:36:11;;;;;;;2.35;1.35;;;22.80;42.30;;;26.68;27.92;101700.78;5094587;28;20518;-13
2022/05/17 07:38:37;;;;;;;2.03;1.30;;;22.80;42.30;;;26.65;27.91;101703.69;5074207;28;20503;-13
2022/05/17 07:41:04;;;;;;;3.17;1.40;;;22.80;42.30;;;26.68;27.69;101702.56;5094584;28;20120;-13
2022/05/17 07:43:30;;;;;;;2.08;1.40;;;22.80;42.20;;;26.67;27.96;101700.88;5094275;28;20525;-13
2022/05/17 07:45:57;;;;;;;2.22;1.25;;;22.80;42.20;;;26.70;27.84;101708.72;5075985;28;20052;-13
2022/05/17 07:48:25;;;;;;;1.65;1.27;;;22.80;42.20;;;26.69;27.64;101713.19;5094200;28;20098;-13
2022/05/17 07:50:52;;;;;;;1.65;1.08;;;22.80;42.20;;;26.69;27.84;101709.66;5093911;28;20372;-13
2022/05/17 07:53:19;;;;;;;1.20;1.00;;;22.90;42.20;;;26.66;27.83;101702.69;5075907;28;20052;-13
2022/05/17 07:55:47;;;;;;;1.98;1.20;;;22.90;42.10;;;26.74;27.60;101716.41;5076110;28;20130;-13
2022/05/17 07:58:14;;;;;;;1.67;1.48;;;22.90;42.00;;;26.74;27.69;101715.56;5093552;28;20453;-13
2022/05/17 08:00:42;;;;;;;1.50;1.13;;;23.00;42.00;;;26.77;27.71;101709.97;5093443;28;20126;-13
2022/05/17 08:03:09;;;;;;;1.67;1.58;;;23.00;41.90;;;26.79;27.79;101719.59;5093774;28;20044;-13
2022/05/17 08:05:35;;;;;;;3.88;1.33;;;23.00;41.80;;;26.85;27.57;101728.16;5091986;28;20414;-13
2022/05/17 08:08:02;;;;;;;1.90;1.40;;;23.10;41.70;;;26.85;27.61;101721.00;5093817;28;20040;-13
2022/05/17 08:10:29;;;;;;;1.95;1.23;;;23.10;41.70;;;26.87;27.33;101718.19;5093569;28;20541;-13
2022/05/17 08:12:55;;;;;;;1.30;1.20;;;23.10;41.60;;;26.88;27.59;101725.25;5093461;28;20063;-13
2022/05/17 08:15:23;;;;;;;1.58;1.02;;;23.10;41.60;;;-147.20;100.00;58430.41;5093399;28;20131;-13
2022/05/17 08:17:50;;;;;;;1.88;1.20;;;23.20;41.60;;;-147.20;100.00;58430.41;5093600;28;20054;-13
2022/05/17 08:20:18;;;;;;;1.77;1.20;;;23.20;41.60;;;-147.20;100.00;58430.41;5093394;28;20052;-13
2022/05/17 08:22:46;;;;;;;1.40;1.27;;;23.10;41.60;;;-147.20;100.00;58430.41;5093584;28;20039;-14
2022/05/17 08:28:02;;;;;;;1.38;1.20;;;23.10;41.60;;;-147.20;100.00;58430.41;5091236;28;20040;-13
2022/05/17 08:30:29;;;;;;;3.22;1.20;;;23.10;41.60;;;-147.20;100.00;58430.41;5093636;28;20078;-13
2022/05/17 08:33:14;;;;;;;1.90;1.40;;;23.10;41.50;;;-147.20;100.00;58430.41;5093453;28;20044;-13
2022/05/17 08:36:05;;;;;;;3.00;1.35;;;23.10;41.50;;;-147.20;100.00;58430.41;5077459;28;20044;-13
2022/05/17 08:38:38;;;;;;;0.93;0.93;;;23.20;41.40;;;-147.20;100.00;58430.41;5093242;28;20044;-14
2022/05/17 08:41:22;;;;;;;1.67;1.58;;;23.20;41.30;;;-147.20;100.00;58430.41;5093292;28;20113;-14
2022/05/17 08:43:52;;;;;;;1.30;1.20;;;23.30;41.30;;;-147.20;100.00;58430.41;5074123;28;20055;-14
2022/05/17 08:46:44;;;;;;;1.40;1.10;;;23.30;41.10;;;-147.20;100.00;58430.41;5092988;28;20052;-13
2022/05/17 08:49:37;;;;;;;2.03;1.42;;;23.30;41.10;;;-147.20;100.00;58430.41;5074902;28;20056;-14
2022/05/17 08:52:09;;;;;;;2.45;1.40;;;23.40;41.00;;;-147.20;100.00;58430.41;5075123;28;20143;-15
2022/05/17 08:54:55;;;;;;;1.90;1.20;;;23.40;40.90;;;-147.20;100.00;58430.41;5075194;28;20052;-15
2022/05/17 08:57:31;;;;;;;1.08;1.00;;;23.40;40.90;;;-147.20;100.00;58430.41;5073503;28;20461;-14
2022/05/17 09:00:17;;;;;;;2.08;1.30;;;23.50;40.90;;;-147.20;100.00;58430.41;5092555;28;20043;-14
2022/05/17 09:03:05;;;;;;;2.67;1.40;;;23.50;40.90;;;-147.20;100.00;58430.41;5092734;28;20099;-15
2022/05/17 09:06:06;;;;;;;1.98;1.20;;;23.50;40.80;;;-147.20;100.00;58430.41;5074430;28;20052;-14
2022/05/17 09:08:41;;;;;;;;;;;23.50;40.80;;;-147.20;100.00;58430.41;5092863;28;20048;-14
2022/05/17 09:11:25;;;;;;;2.65;1.20;;;23.50;40.70;;;-147.20;100.00;58430.41;5072842;28;20383;-14
2022/05/17 09:14:06;;;;;;;2.25;1.13;;;23.50;40.70;;;-147.20;100.00;58430.41;5092317;28;20079;-14
2022/05/17 09:16:35;;;;;;;;;;;23.50;40.70;;;-147.20;100.00;58430.41;5075158;28;20093;-14
2022/05/17 09:19:01;;;;;;;1.55;1.10;;;23.50;40.70;;;-147.20;100.00;58430.41;5092828;28;19916;-14
2022/05/17 09:21:36;;;;;;;1.58;1.30;;;23.60;40.60;;;-147.20;100.00;58430.41;5092399;28;20072;-14
2022/05/17 09:24:12;;;;;;;1.25;1.15;;;23.60;40.60;;;-147.20;100.00;58430.41;5074418;28;20412;-14
2022/05/17 09:26:45;;;;;;;1.35;1.23;;;23.50;40.60;;;-147.20;100.00;58430.41;5058024;28;20408;-14
2022/05/17 09:29:33;;;;;;;2.30;1.52;;;23.50;40.70;;;-147.20;100.00;58430.41;5092645;28;20093;-14
2022/05/17 09:32:07;;;;;;;2.00;1.33;;;23.50;40.70;;;-147.20;100.00;58430.41;5059927;28;20087;-14
2022/05/17 09:34:42;;;;;;;1.40;1.27;;;23.50;40.70;;;-147.20;100.00;58430.41;5091093;28;20072;-16
2022/05/17 09:37:11;;;;;;;1.45;1.20;;;23.50;40.60;;;-147.20;100.00;58430.41;5089931;28;20147;-17
2022/05/17 09:39:37;;;;;;;2.47;1.23;;;23.50;40.60;;;-147.20;100.00;58430.41;5090343;28;20048;-16
2022/05/17 09:42:08;;;;;;;1.40;1.20;;;23.60;40.60;;;-147.20;100.00;58430.41;5090617;28;20040;-15
2022/05/17 09:44:40;;;;;;;2.28;1.27;;;23.60;40.60;;;-147.20;100.00;58430.41;5091379;28;20044;-16
2022/05/17 09:47:08;;;;;;;1.40;1.30;;;23.70;40.50;;;-147.20;100.00;58430.41;5091236;28;20048;-14
2022/05/17 09:52:33;;;;;;;2.05;1.30;;;23.70;40.40;;;-147.20;100.00;58430.41;5092610;28;20124;-14
2022/05/17 09:55:25;;;;;;;2.53;1.20;;;23.70;40.30;;;-147.20;100.00;58430.41;5075855;28;20048;-14
2022/05/17 09:58:26;;;;;;;1.55;1.20;;;23.70;40.30;;;-147.20;100.00;58430.41;5095813;28;20490;-14
2022/05/17 10:00:54;;;;;;;1.98;1.20;;;23.70;40.30;;;-147.20;100.00;58430.41;5077705;28;20048;-14
2022/05/17 10:03:34;;;;;;;2.20;1.42;;;23.70;40.30;;;-147.20;100.00;58430.41;5095602;28;20052;-14
2022/05/17 10:06:05;;;;;;;1.90;1.07;;;23.70;40.30;;;-147.20;100.00;58430.41;5096110;28;20093;-14
2022/05/17 10:08:58;;;;;;;1.45;1.25;;;23.70;40.30;;;-147.20;100.00;58430.41;5096168;28;20048;-14
2022/05/17 10:11:27;;;;;;;1.10;1.00;;;23.70;40.40;;;-147.20;100.00;58430.41;5077303;28;20146;-15
2022/05/17 10:14:19;;;;;;;1.73;1.40;;;23.70;40.40;;;-147.20;100.00;58430.41;5077780;28;20096;-14
2022/05/17 10:17:01;;;;;;;3.10;1.33;;;23.70;40.40;;;-147.20;100.00;58430.41;5077337;28;20057;-14
2022/05/17 10:19:58;;;;;;;2.73;1.00;;;23.70;40.60;;;-147.20;100.00;58430.41;5073111;28;20049;-15
2022/05/17 10:23:21;;;;;;;2.22;1.10;;;23.60;40.60;;;-147.20;100.00;58430.41;5076318;28;20052;-14
2022/05/17 10:25:57;;;;;;;2.95;1.38;;;23.60;40.60;;;-147.20;100.00;58430.41;5032753;28;20050;-14
2022/05/17 10:28:44;;;;;;;2.33;1.40;;;23.70;40.70;;;-147.20;100.00;58430.41;5016075;28;20107;-14
2022/05/17 10:31:27;;;;;;;1.50;1.30;;;23.70;40.60;;;-147.20;100.00;58430.41;5063542;28;20530;-14